sensor_id;sensor_type;location;lat;lon;timestamp;P1;durP1;ratioP1;P2;durP2;ratioP2
52934;SDS011;38802;50.198;19.796;2023-07-31T00:02:01;5.50;;;1.90;;
52934;SDS011;38802;50.198;19.796;2023-07-31T00:04:29;6.20;;;1.90;;
52934;SDS011;38802;50.198;19.796;2023-07-31T00:06:57;5.10;;;2.00;;
52934;SDS011;38802;50.198;19.796;2023-07-31T00:09:25;3.40;;;1.70;;
52934;SDS011;38802;50.198;19.796;2023-07-31T00:11:54;2.70;;;1.60;;
52934;SDS011;38802;50.198;19.796;2023-07-31T00:14:22;2.70;;;1.90;;
52934;SDS011;38802;50.198;19.796;2023-07-31T00:16:50;2.30;;;1.80;;
52934;SDS011;38802;50.198;19.796;2023-07-31T00:19:19;2.70;;;2.10;;
52934;SDS011;38802;50.198;19.796;2023-07-31T00:21:47;4.70;;;2.40;;
52934;SDS011;38802;50.198;19.796;2023-07-31T00:24:15;4.40;;;2.20;;
52934;SDS011;38802;50.198;19.796;2023-07-31T00:26:43;4.80;;;2.00;;
52934;SDS011;38802;50.198;19.796;2023-07-31T00:29:11;6.30;;;2.60;;
52934;SDS011;38802;50.198;19.796;2023-07-31T00:31:39;3.20;;;2.40;;
52934;SDS011;38802;50.198;19.796;2023-07-31T00:34:07;4.70;;;2.30;;
52934;SDS011;38802;50.198;19.796;2023-07-31T00:36:35;2.70;;;2.50;;
52934;SDS011;38802;50.198;19.796;2023-07-31T00:39:04;5.30;;;2.80;;
52934;SDS011;38802;50.198;19.796;2023-07-31T00:41:32;5.20;;;3.10;;
52934;SDS011;38802;50.198;19.796;2023-07-31T00:44:02;3.00;;;2.70;;
52934;SDS011;38802;50.198;19.796;2023-07-31T00:46:30;6.80;;;2.70;;
52934;SDS011;38802;50.198;19.796;2023-07-31T00:48:58;3.40;;;2.80;;
52934;SDS011;38802;50.198;19.796;2023-07-31T00:51:27;5.10;;;3.20;;
52934;SDS011;38802;50.198;19.796;2023-07-31T00:53:55;4.20;;;3.00;;
52934;SDS011;38802;50.198;19.796;2023-07-31T00:56:23;5.20;;;2.80;;
52934;SDS011;38802;50.198;19.796;2023-07-31T00:58:51;3.30;;;2.80;;
52934;SDS011;38802;50.198;19.796;2023-07-31T01:01:19;4.10;;;3.60;;
52934;SDS011;38802;50.198;19.796;2023-07-31T01:03:48;5.40;;;3.70;;
52934;SDS011;38802;50.198;19.796;2023-07-31T01:06:36;4.60;;;3.70;;
52934;SDS011;38802;50.198;19.796;2023-07-31T01:12:15;5.10;;;3.80;;
52934;SDS011;38802;50.198;19.796;2023-07-31T01:15:01;4.70;;;4.10;;
52934;SDS011;38802;50.198;19.796;2023-07-31T01:17:32;6.60;;;3.90;;
52934;SDS011;38802;50.198;19.796;2023-07-31T01:20:01;4.60;;;4.20;;
52934;SDS011;38802;50.198;19.796;2023-07-31T01:28:03;4.40;;;4.00;;
52934;SDS011;38802;50.198;19.796;2023-07-31T01:30:37;5.50;;;3.40;;
52934;SDS011;38802;50.198;19.796;2023-07-31T01:33:09;4.50;;;4.10;;
52934;SDS011;38802;50.198;19.796;2023-07-31T01:35:38;6.60;;;4.70;;
52934;SDS011;38802;50.198;19.796;2023-07-31T01:38:06;7.40;;;4.30;;
52934;SDS011;38802;50.198;19.796;2023-07-31T01:40:34;5.00;;;4.50;;
52934;SDS011;38802;50.198;19.796;2023-07-31T01:43:02;5.60;;;5.10;;
52934;SDS011;38802;50.198;19.796;2023-07-31T01:45:30;7.70;;;5.20;;
52934;SDS011;38802;50.198;19.796;2023-07-31T01:47:58;5.80;;;5.30;;
52934;SDS011;38802;50.198;19.796;2023-07-31T01:50:26;6.60;;;5.70;;
52934;SDS011;38802;50.198;19.796;2023-07-31T01:52:54;6.60;;;6.00;;
52934;SDS011;38802;50.198;19.796;2023-07-31T01:55:22;8.90;;;5.70;;
52934;SDS011;38802;50.198;19.796;2023-07-31T01:57:51;6.10;;;4.90;;
52934;SDS011;38802;50.198;19.796;2023-07-31T02:00:20;6.30;;;5.70;;
52934;SDS011;38802;50.198;19.796;2023-07-31T02:02:48;6.30;;;5.50;;
52934;SDS011;38802;50.198;19.796;2023-07-31T02:05:16;6.50;;;5.80;;
52934;SDS011;38802;50.198;19.796;2023-07-31T02:07:44;5.90;;;5.40;;
52934;SDS011;38802;50.198;19.796;2023-07-31T02:10:12;5.80;;;5.30;;
52934;SDS011;38802;50.198;19.796;2023-07-31T02:12:40;6.60;;;5.50;;
52934;SDS011;38802;50.198;19.796;2023-07-31T02:15:09;8.20;;;5.90;;
52934;SDS011;38802;50.198;19.796;2023-07-31T02:17:37;6.80;;;6.20;;
52934;SDS011;38802;50.198;19.796;2023-07-31T02:20:05;6.60;;;6.00;;
52934;SDS011;38802;50.198;19.796;2023-07-31T02:22:34;6.20;;;5.30;;
52934;SDS011;38802;50.198;19.796;2023-07-31T02:25:03;7.90;;;5.60;;
52934;SDS011;38802;50.198;19.796;2023-07-31T02:27:31;10.40;;;5.10;;
52934;SDS011;38802;50.198;19.796;2023-07-31T02:29:59;7.10;;;5.40;;
52934;SDS011;38802;50.198;19.796;2023-07-31T02:32:27;9.00;;;6.20;;
52934;SDS011;38802;50.198;19.796;2023-07-31T02:34:55;6.50;;;5.90;;
52934;SDS011;38802;50.198;19.796;2023-07-31T02:37:23;6.40;;;5.80;;
52934;SDS011;38802;50.198;19.796;2023-07-31T02:39:51;6.30;;;5.70;;
52934;SDS011;38802;50.198;19.796;2023-07-31T02:42:20;10.00;;;6.50;;
52934;SDS011;38802;50.198;19.796;2023-07-31T02:44:48;7.00;;;6.10;;
52934;SDS011;38802;50.198;19.796;2023-07-31T02:47:16;7.50;;;6.00;;
52934;SDS011;38802;50.198;19.796;2023-07-31T02:49:45;7.20;;;6.50;;
52934;SDS011;38802;50.198;19.796;2023-07-31T02:52:12;6.60;;;5.90;;
52934;SDS011;38802;50.198;19.796;2023-07-31T02:54:40;6.80;;;6.10;;
52934;SDS011;38802;50.198;19.796;2023-07-31T02:57:08;6.70;;;6.10;;
52934;SDS011;38802;50.198;19.796;2023-07-31T02:59:36;9.10;;;6.40;;
52934;SDS011;38802;50.198;19.796;2023-07-31T03:02:04;7.50;;;5.70;;
52934;SDS011;38802;50.198;19.796;2023-07-31T03:04:32;7.00;;;5.30;;
52934;SDS011;38802;50.198;19.796;2023-07-31T03:07:00;5.20;;;4.80;;
52934;SDS011;38802;50.198;19.796;2023-07-31T03:09:28;8.90;;;5.20;;
52934;SDS011;38802;50.198;19.796;2023-07-31T03:11:56;6.40;;;5.60;;
52934;SDS011;38802;50.198;19.796;2023-07-31T03:14:24;8.30;;;4.90;;
52934;SDS011;38802;50.198;19.796;2023-07-31T03:16:54;5.70;;;5.20;;
52934;SDS011;38802;50.198;19.796;2023-07-31T03:19:22;7.80;;;6.20;;
52934;SDS011;38802;50.198;19.796;2023-07-31T03:21:50;8.60;;;5.70;;
52934;SDS011;38802;50.198;19.796;2023-07-31T03:24:18;5.80;;;5.20;;
52934;SDS011;38802;50.198;19.796;2023-07-31T03:26:46;7.80;;;5.70;;
52934;SDS011;38802;50.198;19.796;2023-07-31T03:29:14;5.60;;;5.10;;
52934;SDS011;38802;50.198;19.796;2023-07-31T03:31:42;7.60;;;4.70;;
52934;SDS011;38802;50.198;19.796;2023-07-31T03:34:10;5.60;;;5.10;;
52934;SDS011;38802;50.198;19.796;2023-07-31T03:36:38;8.00;;;4.90;;
52934;SDS011;38802;50.198;19.796;2023-07-31T03:39:07;6.30;;;4.90;;
52934;SDS011;38802;50.198;19.796;2023-07-31T03:41:36;6.00;;;4.80;;
52934;SDS011;38802;50.198;19.796;2023-07-31T03:44:04;6.30;;;5.00;;
52934;SDS011;38802;50.198;19.796;2023-07-31T03:46:32;7.40;;;4.60;;
52934;SDS011;38802;50.198;19.796;2023-07-31T03:49:01;6.00;;;5.00;;
52934;SDS011;38802;50.198;19.796;2023-07-31T03:51:29;7.60;;;4.70;;
52934;SDS011;38802;50.198;19.796;2023-07-31T03:53:57;7.60;;;4.40;;
52934;SDS011;38802;50.198;19.796;2023-07-31T03:56:25;8.40;;;4.60;;
52934;SDS011;38802;50.198;19.796;2023-07-31T03:58:53;4.60;;;4.20;;
52934;SDS011;38802;50.198;19.796;2023-07-31T04:01:21;6.20;;;4.20;;
52934;SDS011;38802;50.198;19.796;2023-07-31T04:03:50;4.10;;;3.70;;
52934;SDS011;38802;50.198;19.796;2023-07-31T04:06:18;6.10;;;4.60;;
52934;SDS011;38802;50.198;19.796;2023-07-31T04:08:46;4.70;;;4.10;;
52934;SDS011;38802;50.198;19.796;2023-07-31T04:11:14;3.90;;;3.50;;
52934;SDS011;38802;50.198;19.796;2023-07-31T04:13:42;6.10;;;4.10;;
52934;SDS011;38802;50.198;19.796;2023-07-31T04:16:10;3.70;;;3.40;;
52934;SDS011;38802;50.198;19.796;2023-07-31T04:18:38;4.90;;;4.30;;
52934;SDS011;38802;50.198;19.796;2023-07-31T04:21:06;3.20;;;3.00;;
52934;SDS011;38802;50.198;19.796;2023-07-31T04:23:34;5.00;;;3.90;;
52934;SDS011;38802;50.198;19.796;2023-07-31T04:26:02;5.40;;;4.10;;
52934;SDS011;38802;50.198;19.796;2023-07-31T04:28:30;4.50;;;3.40;;
52934;SDS011;38802;50.198;19.796;2023-07-31T04:30:59;4.80;;;4.00;;
52934;SDS011;38802;50.198;19.796;2023-07-31T04:33:27;5.20;;;3.80;;
52934;SDS011;38802;50.198;19.796;2023-07-31T04:35:56;4.30;;;3.90;;
52934;SDS011;38802;50.198;19.796;2023-07-31T04:38:24;4.60;;;3.90;;
52934;SDS011;38802;50.198;19.796;2023-07-31T04:40:52;4.00;;;3.30;;
52934;SDS011;38802;50.198;19.796;2023-07-31T04:43:20;4.70;;;4.20;;
52934;SDS011;38802;50.198;19.796;2023-07-31T04:45:48;3.50;;;3.20;;
52934;SDS011;38802;50.198;19.796;2023-07-31T04:48:17;4.30;;;3.60;;
52934;SDS011;38802;50.198;19.796;2023-07-31T04:50:45;3.80;;;3.50;;
52934;SDS011;38802;50.198;19.796;2023-07-31T04:53:13;4.60;;;4.20;;
52934;SDS011;38802;50.198;19.796;2023-07-31T04:55:41;4.20;;;3.80;;
52934;SDS011;38802;50.198;19.796;2023-07-31T04:58:09;4.30;;;3.30;;
52934;SDS011;38802;50.198;19.796;2023-07-31T05:00:37;6.50;;;3.40;;
52934;SDS011;38802;50.198;19.796;2023-07-31T05:03:06;4.10;;;3.70;;
52934;SDS011;38802;50.198;19.796;2023-07-31T05:05:35;3.60;;;3.30;;
52934;SDS011;38802;50.198;19.796;2023-07-31T05:08:03;5.20;;;3.80;;
52934;SDS011;38802;50.198;19.796;2023-07-31T05:10:32;5.20;;;4.80;;
52934;SDS011;38802;50.198;19.796;2023-07-31T05:13:00;4.90;;;3.30;;
52934;SDS011;38802;50.198;19.796;2023-07-31T05:15:28;3.60;;;3.30;;
52934;SDS011;38802;50.198;19.796;2023-07-31T05:17:57;3.70;;;2.90;;
52934;SDS011;38802;50.198;19.796;2023-07-31T05:20:25;2.80;;;2.60;;
52934;SDS011;38802;50.198;19.796;2023-07-31T05:22:53;3.20;;;2.00;;
52934;SDS011;38802;50.198;19.796;2023-07-31T05:25:21;2.80;;;2.50;;
52934;SDS011;38802;50.198;19.796;2023-07-31T05:27:49;2.10;;;1.90;;
52934;SDS011;38802;50.198;19.796;2023-07-31T05:30:17;3.40;;;1.70;;
52934;SDS011;38802;50.198;19.796;2023-07-31T05:32:46;2.70;;;2.10;;
52934;SDS011;38802;50.198;19.796;2023-07-31T05:35:14;2.50;;;2.00;;
52934;SDS011;38802;50.198;19.796;2023-07-31T05:37:42;5.20;;;2.20;;
52934;SDS011;38802;50.198;19.796;2023-07-31T05:40:10;2.50;;;1.90;;
52934;SDS011;38802;50.198;19.796;2023-07-31T05:42:38;4.20;;;2.00;;
52934;SDS011;38802;50.198;19.796;2023-07-31T05:45:07;2.80;;;2.20;;
52934;SDS011;38802;50.198;19.796;2023-07-31T05:47:35;4.90;;;2.40;;
52934;SDS011;38802;50.198;19.796;2023-07-31T05:50:03;2.90;;;2.20;;
52934;SDS011;38802;50.198;19.796;2023-07-31T05:52:31;5.70;;;2.50;;
52934;SDS011;38802;50.198;19.796;2023-07-31T05:54:59;4.30;;;2.60;;
52934;SDS011;38802;50.198;19.796;2023-07-31T05:57:27;3.30;;;2.20;;
52934;SDS011;38802;50.198;19.796;2023-07-31T05:59:55;2.50;;;2.30;;
52934;SDS011;38802;50.198;19.796;2023-07-31T06:02:24;3.50;;;2.50;;
52934;SDS011;38802;50.198;19.796;2023-07-31T06:04:52;3.30;;;2.00;;
52934;SDS011;38802;50.198;19.796;2023-07-31T06:07:20;2.20;;;1.80;;
52934;SDS011;38802;50.198;19.796;2023-07-31T06:09:48;2.90;;;2.10;;
52934;SDS011;38802;50.198;19.796;2023-07-31T06:12:17;2.70;;;2.20;;
52934;SDS011;38802;50.198;19.796;2023-07-31T06:14:46;4.40;;;2.30;;
52934;SDS011;38802;50.198;19.796;2023-07-31T06:17:14;6.80;;;2.00;;
52934;SDS011;38802;50.198;19.796;2023-07-31T06:19:42;7.70;;;2.20;;
52934;SDS011;38802;50.198;19.796;2023-07-31T06:22:10;3.50;;;1.80;;
52934;SDS011;38802;50.198;19.796;2023-07-31T06:24:38;7.30;;;2.30;;
52934;SDS011;38802;50.198;19.796;2023-07-31T06:27:06;1.70;;;1.60;;
52934;SDS011;38802;50.198;19.796;2023-07-31T06:29:34;1.70;;;1.30;;
52934;SDS011;38802;50.198;19.796;2023-07-31T06:32:03;2.40;;;1.60;;
52934;SDS011;38802;50.198;19.796;2023-07-31T06:34:31;2.70;;;1.50;;
52934;SDS011;38802;50.198;19.796;2023-07-31T06:36:59;4.40;;;1.40;;
52934;SDS011;38802;50.198;19.796;2023-07-31T06:39:27;4.20;;;1.40;;
52934;SDS011;38802;50.198;19.796;2023-07-31T06:41:55;2.30;;;1.40;;
52934;SDS011;38802;50.198;19.796;2023-07-31T06:44:23;4.70;;;1.40;;
52934;SDS011;38802;50.198;19.796;2023-07-31T06:46:51;5.00;;;1.60;;
52934;SDS011;38802;50.198;19.796;2023-07-31T06:49:20;3.60;;;1.30;;
52934;SDS011;38802;50.198;19.796;2023-07-31T06:51:50;3.10;;;1.40;;
52934;SDS011;38802;50.198;19.796;2023-07-31T06:54:18;3.00;;;1.40;;
52934;SDS011;38802;50.198;19.796;2023-07-31T06:56:46;2.40;;;1.60;;
52934;SDS011;38802;50.198;19.796;2023-07-31T06:59:14;3.90;;;1.60;;
52934;SDS011;38802;50.198;19.796;2023-07-31T07:01:42;2.60;;;1.50;;
52934;SDS011;38802;50.198;19.796;2023-07-31T07:04:10;4.70;;;1.70;;
52934;SDS011;38802;50.198;19.796;2023-07-31T07:06:38;4.00;;;1.80;;
52934;SDS011;38802;50.198;19.796;2023-07-31T07:09:06;3.00;;;1.50;;
52934;SDS011;38802;50.198;19.796;2023-07-31T07:11:35;2.60;;;2.10;;
52934;SDS011;38802;50.198;19.796;2023-07-31T07:14:05;3.20;;;1.90;;
52934;SDS011;38802;50.198;19.796;2023-07-31T07:16:33;4.70;;;2.00;;
52934;SDS011;38802;50.198;19.796;2023-07-31T07:19:03;3.30;;;2.00;;
52934;SDS011;38802;50.198;19.796;2023-07-31T07:21:32;4.50;;;1.70;;
52934;SDS011;38802;50.198;19.796;2023-07-31T07:24:03;3.20;;;1.90;;
52934;SDS011;38802;50.198;19.796;2023-07-31T07:26:31;3.00;;;1.70;;
52934;SDS011;38802;50.198;19.796;2023-07-31T07:28:59;6.40;;;1.80;;
52934;SDS011;38802;50.198;19.796;2023-07-31T07:31:29;3.00;;;1.70;;
52934;SDS011;38802;50.198;19.796;2023-07-31T07:33:59;4.10;;;2.00;;
52934;SDS011;38802;50.198;19.796;2023-07-31T07:36:27;4.90;;;1.70;;
52934;SDS011;38802;50.198;19.796;2023-07-31T07:38:55;3.80;;;1.70;;
52934;SDS011;38802;50.198;19.796;2023-07-31T07:41:25;2.70;;;1.90;;
52934;SDS011;38802;50.198;19.796;2023-07-31T07:43:53;4.30;;;2.20;;
52934;SDS011;38802;50.198;19.796;2023-07-31T07:46:21;4.80;;;2.50;;
52934;SDS011;38802;50.198;19.796;2023-07-31T07:48:49;7.50;;;2.20;;
52934;SDS011;38802;50.198;19.796;2023-07-31T07:51:17;5.60;;;2.40;;
52934;SDS011;38802;50.198;19.796;2023-07-31T07:53:46;4.70;;;2.30;;
52934;SDS011;38802;50.198;19.796;2023-07-31T07:56:14;3.70;;;1.80;;
52934;SDS011;38802;50.198;19.796;2023-07-31T07:58:42;7.80;;;2.80;;
52934;SDS011;38802;50.198;19.796;2023-07-31T08:01:10;6.20;;;2.60;;
52934;SDS011;38802;50.198;19.796;2023-07-31T08:03:39;3.90;;;2.30;;
52934;SDS011;38802;50.198;19.796;2023-07-31T08:06:07;6.20;;;2.20;;
52934;SDS011;38802;50.198;19.796;2023-07-31T08:08:37;4.10;;;2.20;;
52934;SDS011;38802;50.198;19.796;2023-07-31T08:11:05;4.00;;;2.10;;
52934;SDS011;38802;50.198;19.796;2023-07-31T08:13:34;10.00;;;2.30;;
52934;SDS011;38802;50.198;19.796;2023-07-31T08:16:08;7.60;;;2.70;;
52934;SDS011;38802;50.198;19.796;2023-07-31T08:18:36;4.30;;;1.60;;
52934;SDS011;38802;50.198;19.796;2023-07-31T08:21:04;9.00;;;1.80;;
52934;SDS011;38802;50.198;19.796;2023-07-31T08:23:32;4.00;;;2.30;;
52934;SDS011;38802;50.198;19.796;2023-07-31T08:26:00;3.20;;;1.90;;
52934;SDS011;38802;50.198;19.796;2023-07-31T08:28:28;4.10;;;1.50;;
52934;SDS011;38802;50.198;19.796;2023-07-31T08:30:56;10.50;;;1.60;;
52934;SDS011;38802;50.198;19.796;2023-07-31T08:33:24;7.10;;;1.90;;
52934;SDS011;38802;50.198;19.796;2023-07-31T08:35:56;7.60;;;2.00;;
52934;SDS011;38802;50.198;19.796;2023-07-31T08:38:25;5.00;;;2.10;;
52934;SDS011;38802;50.198;19.796;2023-07-31T08:40:54;2.80;;;1.40;;
52934;SDS011;38802;50.198;19.796;2023-07-31T08:43:22;4.30;;;1.50;;
52934;SDS011;38802;50.198;19.796;2023-07-31T08:45:52;5.60;;;1.30;;
52934;SDS011;38802;50.198;19.796;2023-07-31T08:48:21;3.10;;;1.70;;
52934;SDS011;38802;50.198;19.796;2023-07-31T08:50:53;4.10;;;1.60;;
52934;SDS011;38802;50.198;19.796;2023-07-31T08:53:21;4.70;;;1.60;;
52934;SDS011;38802;50.198;19.796;2023-07-31T08:55:49;3.50;;;1.40;;
52934;SDS011;38802;50.198;19.796;2023-07-31T08:58:20;3.70;;;1.60;;
52934;SDS011;38802;50.198;19.796;2023-07-31T09:00:49;6.70;;;1.90;;
52934;SDS011;38802;50.198;19.796;2023-07-31T09:03:22;5.10;;;1.60;;
52934;SDS011;38802;50.198;19.796;2023-07-31T09:05:53;4.00;;;1.50;;
52934;SDS011;38802;50.198;19.796;2023-07-31T09:08:23;4.30;;;1.30;;
52934;SDS011;38802;50.198;19.796;2023-07-31T09:11:01;2.50;;;1.80;;
52934;SDS011;38802;50.198;19.796;2023-07-31T09:13:32;5.40;;;1.30;;
52934;SDS011;38802;50.198;19.796;2023-07-31T09:16:00;5.20;;;1.20;;
52934;SDS011;38802;50.198;19.796;2023-07-31T09:18:28;5.10;;;1.60;;
52934;SDS011;38802;50.198;19.796;2023-07-31T09:21:03;5.40;;;2.10;;
52934;SDS011;38802;50.198;19.796;2023-07-31T09:23:46;4.70;;;1.50;;
52934;SDS011;38802;50.198;19.796;2023-07-31T09:26:30;11.10;;;1.80;;
52934;SDS011;38802;50.198;19.796;2023-07-31T09:29:00;5.70;;;1.80;;
52934;SDS011;38802;50.198;19.796;2023-07-31T09:31:39;6.10;;;1.70;;
52934;SDS011;38802;50.198;19.796;2023-07-31T09:34:09;2.80;;;1.20;;
52934;SDS011;38802;50.198;19.796;2023-07-31T09:36:49;4.40;;;1.30;;
52934;SDS011;38802;50.198;19.796;2023-07-31T09:39:22;4.80;;;1.30;;
52934;SDS011;38802;50.198;19.796;2023-07-31T09:41:55;5.60;;;1.80;;
52934;SDS011;38802;50.198;19.796;2023-07-31T09:44:37;6.40;;;1.60;;
52934;SDS011;38802;50.198;19.796;2023-07-31T09:47:22;1.70;;;0.90;;
52934;SDS011;38802;50.198;19.796;2023-07-31T09:49:52;6.70;;;1.40;;
52934;SDS011;38802;50.198;19.796;2023-07-31T09:52:20;5.00;;;1.30;;
52934;SDS011;38802;50.198;19.796;2023-07-31T09:54:49;3.30;;;1.50;;
52934;SDS011;38802;50.198;19.796;2023-07-31T09:57:18;4.60;;;1.20;;
52934;SDS011;38802;50.198;19.796;2023-07-31T09:59:50;4.70;;;1.30;;
52934;SDS011;38802;50.198;19.796;2023-07-31T10:02:20;5.80;;;1.30;;
52934;SDS011;38802;50.198;19.796;2023-07-31T10:04:50;3.00;;;1.10;;
52934;SDS011;38802;50.198;19.796;2023-07-31T10:07:22;4.90;;;1.80;;
52934;SDS011;38802;50.198;19.796;2023-07-31T10:09:53;3.60;;;1.40;;
52934;SDS011;38802;50.198;19.796;2023-07-31T10:12:22;3.40;;;1.50;;
52934;SDS011;38802;50.198;19.796;2023-07-31T10:14:55;7.80;;;1.30;;
52934;SDS011;38802;50.198;19.796;2023-07-31T10:17:24;5.00;;;1.20;;
52934;SDS011;38802;50.198;19.796;2023-07-31T10:19:53;2.80;;;1.20;;
52934;SDS011;38802;50.198;19.796;2023-07-31T10:22:21;2.00;;;1.00;;
52934;SDS011;38802;50.198;19.796;2023-07-31T10:24:50;2.20;;;1.00;;
52934;SDS011;38802;50.198;19.796;2023-07-31T10:27:20;6.10;;;1.10;;
52934;SDS011;38802;50.198;19.796;2023-07-31T10:29:48;4.10;;;1.30;;
52934;SDS011;38802;50.198;19.796;2023-07-31T10:32:17;3.60;;;1.10;;
52934;SDS011;38802;50.198;19.796;2023-07-31T10:34:50;2.20;;;1.20;;
52934;SDS011;38802;50.198;19.796;2023-07-31T10:39:59;3.60;;;0.90;;
52934;SDS011;38802;50.198;19.796;2023-07-31T10:42:35;2.00;;;1.10;;
52934;SDS011;38802;50.198;19.796;2023-07-31T10:45:08;1.70;;;1.00;;
52934;SDS011;38802;50.198;19.796;2023-07-31T10:50:12;5.90;;;1.40;;
52934;SDS011;38802;50.198;19.796;2023-07-31T10:52:43;2.80;;;1.00;;
52934;SDS011;38802;50.198;19.796;2023-07-31T10:55:26;2.70;;;1.30;;
52934;SDS011;38802;50.198;19.796;2023-07-31T10:58:05;3.40;;;1.70;;
52934;SDS011;38802;50.198;19.796;2023-07-31T11:00:42;5.30;;;1.30;;
52934;SDS011;38802;50.198;19.796;2023-07-31T11:03:15;6.10;;;1.50;;
52934;SDS011;38802;50.198;19.796;2023-07-31T11:05:52;2.60;;;1.20;;
52934;SDS011;38802;50.198;19.796;2023-07-31T11:08:50;4.40;;;2.00;;
52934;SDS011;38802;50.198;19.796;2023-07-31T11:11:19;1.30;;;0.90;;
52934;SDS011;38802;50.198;19.796;2023-07-31T11:14:03;3.00;;;1.10;;
52934;SDS011;38802;50.198;19.796;2023-07-31T11:16:33;7.00;;;2.30;;
52934;SDS011;38802;50.198;19.796;2023-07-31T11:19:01;2.60;;;1.30;;
52934;SDS011;38802;50.198;19.796;2023-07-31T11:21:29;3.50;;;1.40;;
52934;SDS011;38802;50.198;19.796;2023-07-31T11:23:58;2.40;;;1.00;;
52934;SDS011;38802;50.198;19.796;2023-07-31T11:26:28;3.50;;;1.10;;
52934;SDS011;38802;50.198;19.796;2023-07-31T11:28:56;2.70;;;1.20;;
52934;SDS011;38802;50.198;19.796;2023-07-31T11:31:24;2.40;;;1.50;;
52934;SDS011;38802;50.198;19.796;2023-07-31T11:34:04;2.00;;;1.00;;
52934;SDS011;38802;50.198;19.796;2023-07-31T11:36:32;2.40;;;1.30;;
52934;SDS011;38802;50.198;19.796;2023-07-31T11:39:04;2.80;;;1.20;;
52934;SDS011;38802;50.198;19.796;2023-07-31T11:41:36;3.20;;;1.90;;
52934;SDS011;38802;50.198;19.796;2023-07-31T11:44:04;1.90;;;1.20;;
52934;SDS011;38802;50.198;19.796;2023-07-31T11:46:51;2.80;;;1.10;;
52934;SDS011;38802;50.198;19.796;2023-07-31T11:49:20;2.20;;;1.10;;
52934;SDS011;38802;50.198;19.796;2023-07-31T11:51:49;2.30;;;1.00;;
52934;SDS011;38802;50.198;19.796;2023-07-31T11:54:17;4.00;;;1.10;;
52934;SDS011;38802;50.198;19.796;2023-07-31T11:56:45;2.10;;;1.10;;
52934;SDS011;38802;50.198;19.796;2023-07-31T11:59:13;5.80;;;1.40;;
52934;SDS011;38802;50.198;19.796;2023-07-31T12:01:41;5.40;;;0.90;;
52934;SDS011;38802;50.198;19.796;2023-07-31T12:04:11;2.90;;;1.20;;
52934;SDS011;38802;50.198;19.796;2023-07-31T12:06:40;5.00;;;1.10;;
52934;SDS011;38802;50.198;19.796;2023-07-31T12:09:08;3.80;;;1.10;;
52934;SDS011;38802;50.198;19.796;2023-07-31T12:11:45;1.60;;;0.80;;
52934;SDS011;38802;50.198;19.796;2023-07-31T12:14:24;2.80;;;1.20;;
52934;SDS011;38802;50.198;19.796;2023-07-31T12:17:00;3.80;;;1.10;;
52934;SDS011;38802;50.198;19.796;2023-07-31T12:19:34;4.80;;;1.40;;
52934;SDS011;38802;50.198;19.796;2023-07-31T12:22:02;1.90;;;1.00;;
52934;SDS011;38802;50.198;19.796;2023-07-31T12:24:42;5.80;;;1.00;;
52934;SDS011;38802;50.198;19.796;2023-07-31T12:27:15;4.30;;;1.60;;
52934;SDS011;38802;50.198;19.796;2023-07-31T12:29:46;3.70;;;1.40;;
52934;SDS011;38802;50.198;19.796;2023-07-31T12:32:20;3.10;;;1.20;;
52934;SDS011;38802;50.198;19.796;2023-07-31T12:34:49;8.20;;;1.20;;
52934;SDS011;38802;50.198;19.796;2023-07-31T12:37:17;6.40;;;1.70;;
52934;SDS011;38802;50.198;19.796;2023-07-31T12:39:45;4.00;;;1.30;;
52934;SDS011;38802;50.198;19.796;2023-07-31T12:42:13;4.80;;;1.40;;
52934;SDS011;38802;50.198;19.796;2023-07-31T12:44:41;4.70;;;1.10;;
52934;SDS011;38802;50.198;19.796;2023-07-31T12:47:09;4.40;;;1.60;;
52934;SDS011;38802;50.198;19.796;2023-07-31T12:49:37;3.40;;;1.10;;
52934;SDS011;38802;50.198;19.796;2023-07-31T12:52:05;3.10;;;1.30;;
52934;SDS011;38802;50.198;19.796;2023-07-31T12:54:33;1.60;;;1.00;;
52934;SDS011;38802;50.198;19.796;2023-07-31T12:57:03;5.90;;;0.90;;
52934;SDS011;38802;50.198;19.796;2023-07-31T12:59:32;2.50;;;1.10;;
52934;SDS011;38802;50.198;19.796;2023-07-31T13:02:00;3.70;;;1.00;;
52934;SDS011;38802;50.198;19.796;2023-07-31T13:04:28;2.20;;;1.00;;
52934;SDS011;38802;50.198;19.796;2023-07-31T13:06:56;4.80;;;1.40;;
52934;SDS011;38802;50.198;19.796;2023-07-31T13:09:24;3.30;;;0.90;;
52934;SDS011;38802;50.198;19.796;2023-07-31T13:11:52;3.30;;;1.20;;
52934;SDS011;38802;50.198;19.796;2023-07-31T13:14:20;2.60;;;0.90;;
52934;SDS011;38802;50.198;19.796;2023-07-31T13:16:48;3.10;;;1.20;;
52934;SDS011;38802;50.198;19.796;2023-07-31T13:19:16;2.60;;;1.00;;
52934;SDS011;38802;50.198;19.796;2023-07-31T13:21:44;2.20;;;1.10;;
52934;SDS011;38802;50.198;19.796;2023-07-31T13:24:12;1.80;;;1.00;;
52934;SDS011;38802;50.198;19.796;2023-07-31T13:26:40;2.40;;;1.10;;
52934;SDS011;38802;50.198;19.796;2023-07-31T13:29:08;1.80;;;1.10;;
52934;SDS011;38802;50.198;19.796;2023-07-31T13:31:40;2.00;;;1.10;;
52934;SDS011;38802;50.198;19.796;2023-07-31T13:34:08;4.20;;;1.40;;
52934;SDS011;38802;50.198;19.796;2023-07-31T13:36:36;2.20;;;1.10;;
52934;SDS011;38802;50.198;19.796;2023-07-31T13:39:05;5.70;;;1.00;;
52934;SDS011;38802;50.198;19.796;2023-07-31T13:41:33;1.50;;;1.00;;
52934;SDS011;38802;50.198;19.796;2023-07-31T13:44:01;3.80;;;1.30;;
52934;SDS011;38802;50.198;19.796;2023-07-31T13:46:29;3.50;;;1.20;;
52934;SDS011;38802;50.198;19.796;2023-07-31T13:48:58;3.60;;;0.90;;
52934;SDS011;38802;50.198;19.796;2023-07-31T13:51:27;4.50;;;1.50;;
52934;SDS011;38802;50.198;19.796;2023-07-31T13:53:56;2.20;;;1.20;;
52934;SDS011;38802;50.198;19.796;2023-07-31T13:56:25;4.30;;;1.30;;
52934;SDS011;38802;50.198;19.796;2023-07-31T13:58:54;2.50;;;1.20;;
52934;SDS011;38802;50.198;19.796;2023-07-31T14:01:22;2.30;;;1.30;;
52934;SDS011;38802;50.198;19.796;2023-07-31T14:03:50;3.30;;;1.10;;
52934;SDS011;38802;50.198;19.796;2023-07-31T14:06:19;3.50;;;1.70;;
52934;SDS011;38802;50.198;19.796;2023-07-31T14:08:47;2.40;;;0.90;;
52934;SDS011;38802;50.198;19.796;2023-07-31T14:11:15;4.40;;;1.70;;
52934;SDS011;38802;50.198;19.796;2023-07-31T14:13:43;2.40;;;1.30;;
52934;SDS011;38802;50.198;19.796;2023-07-31T14:16:11;2.40;;;1.20;;
52934;SDS011;38802;50.198;19.796;2023-07-31T14:18:39;2.80;;;1.10;;
52934;SDS011;38802;50.198;19.796;2023-07-31T14:21:11;5.10;;;1.40;;
52934;SDS011;38802;50.198;19.796;2023-07-31T14:23:44;7.60;;;1.30;;
52934;SDS011;38802;50.198;19.796;2023-07-31T14:26:12;2.70;;;1.10;;
52934;SDS011;38802;50.198;19.796;2023-07-31T14:28:40;5.20;;;1.20;;
52934;SDS011;38802;50.198;19.796;2023-07-31T14:31:08;4.70;;;1.40;;
52934;SDS011;38802;50.198;19.796;2023-07-31T14:33:36;5.00;;;1.30;;
52934;SDS011;38802;50.198;19.796;2023-07-31T14:36:05;2.10;;;1.20;;
52934;SDS011;38802;50.198;19.796;2023-07-31T14:38:33;3.00;;;1.00;;
52934;SDS011;38802;50.198;19.796;2023-07-31T14:41:01;8.90;;;1.80;;
52934;SDS011;38802;50.198;19.796;2023-07-31T14:43:29;1.70;;;1.10;;
52934;SDS011;38802;50.198;19.796;2023-07-31T14:45:57;2.10;;;1.00;;
52934;SDS011;38802;50.198;19.796;2023-07-31T14:48:27;4.30;;;1.30;;
52934;SDS011;38802;50.198;19.796;2023-07-31T14:50:56;3.30;;;1.30;;
52934;SDS011;38802;50.198;19.796;2023-07-31T14:53:25;2.60;;;1.10;;
52934;SDS011;38802;50.198;19.796;2023-07-31T14:55:53;4.10;;;2.20;;
52934;SDS011;38802;50.198;19.796;2023-07-31T14:58:21;4.00;;;1.60;;
52934;SDS011;38802;50.198;19.796;2023-07-31T15:00:49;4.80;;;1.30;;